createdAt,value
2022-08-28T00:02:05.065Z,8.75
2022-08-28T00:04:32.576Z,11.77
2022-08-28T00:07:02.113Z,9.48
2022-08-28T00:09:29.208Z,8.50
2022-08-28T00:11:56.760Z,10.90
2022-08-28T00:14:25.641Z,8.73
2022-08-28T00:16:54.372Z,8.95
2022-08-28T00:19:23.968Z,7.55
2022-08-28T00:21:52.700Z,11.07
2022-08-28T00:24:20.183Z,10.35
2022-08-28T00:27:05.589Z,7.45
2022-08-28T00:29:32.747Z,10.13
2022-08-28T00:32:00.347Z,7.60
2022-08-28T00:34:33.371Z,10.93
2022-08-28T00:37:01.268Z,7.50
2022-08-28T00:39:28.786Z,9.85
2022-08-28T00:41:57.945Z,9.90
2022-08-28T00:44:27.799Z,9.63
2022-08-28T00:46:59.269Z,8.93
2022-08-28T00:49:35.971Z,12.15
2022-08-28T00:52:12.098Z,10.60
2022-08-28T00:54:58.694Z,15.32
2022-08-28T00:57:37.396Z,8.00
2022-08-28T01:00:11.336Z,7.13
2022-08-28T01:02:38.700Z,10.32
2022-08-28T01:05:09.657Z,12.68
2022-08-28T01:07:39.342Z,9.27
2022-08-28T01:10:14.571Z,15.52
2022-08-28T01:12:43.112Z,12.20
2022-08-28T01:15:17.490Z,11.38
2022-08-28T01:20:23.182Z,12.60
2022-08-28T01:23:11.495Z,11.13
2022-08-28T01:25:40.265Z,9.60
2022-08-28T01:28:14.360Z,9.38
2022-08-28T01:33:14.695Z,8.20
2022-08-28T01:35:47.458Z,9.95
2022-08-28T01:38:21.461Z,12.15
2022-08-28T01:40:57.773Z,10.40
2022-08-28T01:43:27.871Z,9.50
2022-08-28T01:46:02.199Z,10.43
2022-08-28T01:48:33.036Z,11.77
2022-08-28T01:51:00.260Z,9.70
2022-08-28T01:53:33.195Z,10.48
2022-08-28T01:56:07.045Z,14.13
2022-08-28T01:58:38.267Z,13.85
2022-08-28T02:01:17.148Z,13.05
2022-08-28T02:03:44.586Z,16.35
2022-08-28T02:06:15.780Z,11.43
2022-08-28T02:08:42.926Z,15.18
2022-08-28T02:11:10.866Z,15.27
2022-08-28T02:13:39.681Z,12.55
2022-08-28T02:16:09.878Z,11.88
2022-08-28T02:18:37.968Z,14.27
2022-08-28T02:21:07.733Z,10.65
2022-08-28T02:23:39.466Z,12.50
2022-08-28T02:26:08.707Z,10.02
2022-08-28T02:28:37.423Z,15.48
2022-08-28T02:31:09.308Z,13.43
2022-08-28T02:33:44.569Z,11.65
2022-08-28T02:36:14.907Z,12.40
2022-08-28T02:38:44.226Z,9.70
2022-08-28T02:41:17.307Z,14.43
2022-08-28T02:43:44.810Z,12.55
2022-08-28T02:46:11.917Z,13.45
2022-08-28T02:48:40.540Z,15.27
2022-08-28T02:51:14.956Z,12.90
2022-08-28T02:53:42.739Z,10.20
2022-08-28T02:56:10.562Z,11.05
2022-08-28T02:58:39.458Z,10.48
2022-08-28T03:01:11.302Z,14.13
2022-08-28T03:03:40.936Z,10.10
2022-08-28T03:06:12.523Z,16.55
2022-08-28T03:08:41.926Z,11.95
2022-08-28T03:11:09.483Z,10.48
2022-08-28T03:13:36.559Z,12.55
2022-08-28T03:16:05.118Z,10.02
2022-08-28T03:18:33.188Z,11.38
2022-08-28T03:21:01.476Z,12.93
2022-08-28T03:23:28.875Z,15.23
2022-08-28T03:26:02.840Z,13.23
2022-08-28T03:28:41.277Z,13.73
2022-08-28T03:31:15.323Z,10.20
2022-08-28T03:33:42.985Z,12.30
2022-08-28T03:36:17.622Z,13.15
2022-08-28T03:38:44.751Z,15.50
2022-08-28T03:41:17.772Z,10.73
2022-08-28T03:43:46.208Z,17.50
2022-08-28T03:46:22.694Z,13.27
2022-08-28T03:48:51.371Z,10.43
2022-08-28T03:51:29.717Z,15.18
2022-08-28T03:54:01.857Z,13.77
2022-08-28T03:56:30.843Z,10.88
2022-08-28T03:59:01.713Z,14.15
2022-08-28T04:01:29.404Z,11.57
2022-08-28T04:03:57.180Z,11.50
2022-08-28T04:06:25.884Z,9.65
2022-08-28T04:08:53.050Z,9.07
2022-08-28T04:11:21.369Z,14.50
2022-08-28T04:13:48.542Z,13.43
2022-08-28T04:16:19.086Z,13.68
2022-08-28T04:18:49.475Z,12.18
2022-08-28T04:21:21.069Z,10.85
2022-08-28T04:23:48.447Z,11.43
2022-08-28T04:26:20.298Z,12.20
2022-08-28T04:28:48.849Z,14.88
2022-08-28T04:31:17.949Z,9.38
2022-08-28T04:33:59.514Z,11.27
2022-08-28T04:36:26.648Z,8.18
2022-08-28T04:38:53.745Z,10.85
2022-08-28T04:41:20.858Z,9.63
2022-08-28T04:43:48.559Z,13.75
2022-08-28T04:46:15.696Z,13.65
2022-08-28T04:48:43.588Z,10.23
2022-08-28T04:51:14.937Z,8.60
2022-08-28T04:53:43.151Z,10.23
2022-08-28T04:56:15.879Z,9.50
2022-08-28T04:58:43.864Z,8.73
2022-08-28T05:01:24.190Z,13.65
2022-08-28T05:03:57.968Z,9.93
2022-08-28T05:06:28.902Z,8.52
2022-08-28T05:09:02.462Z,12.25
2022-08-28T05:11:34.078Z,15.68
2022-08-28T05:14:05.457Z,13.68
2022-08-28T05:16:39.537Z,13.00
2022-08-28T05:19:06.628Z,11.23
2022-08-28T05:21:33.907Z,12.35
2022-08-28T05:24:01.102Z,11.70
2022-08-28T05:26:29.958Z,12.10
2022-08-28T05:29:00.538Z,11.02
2022-08-28T05:31:31.602Z,15.43
2022-08-28T05:34:01.007Z,13.88
2022-08-28T05:36:33.370Z,14.05
2022-08-28T05:39:04.791Z,11.45
2022-08-28T05:41:34.807Z,10.73
2022-08-28T05:44:11.859Z,10.38
2022-08-28T05:46:42.791Z,12.50
2022-08-28T05:49:18.359Z,8.18
2022-08-28T05:51:46.457Z,11.13
2022-08-28T05:54:15.615Z,13.10
2022-08-28T05:56:45.367Z,8.20
2022-08-28T05:59:14.686Z,10.15
2022-08-28T06:01:48.651Z,8.43
2022-08-28T06:04:25.877Z,8.35
2022-08-28T06:06:53.671Z,9.18
2022-08-28T06:09:29.333Z,11.02
2022-08-28T06:12:00.865Z,10.80
2022-08-28T06:14:30.241Z,13.27
2022-08-28T06:16:58.657Z,9.98
2022-08-28T06:19:29.660Z,11.05
2022-08-28T06:22:01.568Z,10.45
2022-08-28T06:24:34.824Z,9.02
2022-08-28T06:27:02.111Z,10.65
2022-08-28T06:29:30.435Z,16.17
2022-08-28T06:32:04.526Z,11.23
2022-08-28T06:34:32.890Z,10.65
2022-08-28T06:37:00.592Z,11.88
2022-08-28T06:39:28.199Z,9.35
2022-08-28T06:41:55.481Z,8.13
2022-08-28T06:44:23.096Z,10.38
2022-08-28T06:46:53.922Z,10.60
2022-08-28T06:49:22.278Z,8.38
2022-08-28T06:51:50.044Z,9.23
2022-08-28T06:54:22.134Z,13.00
2022-08-28T06:56:52.389Z,8.55
2022-08-28T06:59:20.073Z,8.73
2022-08-28T07:01:47.417Z,11.07
2022-08-28T07:04:14.821Z,8.80
2022-08-28T07:06:46.836Z,8.52
2022-08-28T07:09:14.472Z,7.03
2022-08-28T07:11:48.991Z,7.47
2022-08-28T07:14:16.562Z,7.57
2022-08-28T07:16:44.704Z,9.57
2022-08-28T07:19:13.216Z,7.47
2022-08-28T07:21:44.727Z,8.75
2022-08-28T07:24:14.945Z,6.75
2022-08-28T07:26:43.689Z,12.60
2022-08-28T07:29:12.065Z,9.18
2022-08-28T07:31:46.348Z,7.82
2022-08-28T07:34:15.825Z,5.70
2022-08-28T07:36:43.594Z,7.78
2022-08-28T07:39:13.189Z,7.60
2022-08-28T07:41:42.941Z,9.45
2022-08-28T07:44:32.851Z,6.88
2022-08-28T07:47:05.663Z,10.77
2022-08-28T07:49:34.886Z,7.53
2022-08-28T07:52:02.532Z,6.03
2022-08-28T07:54:29.763Z,6.53
2022-08-28T07:56:58.019Z,5.13
2022-08-28T07:59:25.167Z,4.05
2022-08-28T08:01:53.424Z,8.73
2022-08-28T08:04:23.401Z,6.07
2022-08-28T08:06:57.855Z,7.22
2022-08-28T08:09:27.224Z,5.00
2022-08-28T08:11:56.621Z,5.50
2022-08-28T08:14:25.366Z,6.00
2022-08-28T08:16:53.419Z,5.07
2022-08-28T08:19:20.911Z,3.90
2022-08-28T08:21:53.141Z,8.02
2022-08-28T08:24:26.412Z,6.57
2022-08-28T08:27:00.507Z,4.97
2022-08-28T08:32:08.877Z,7.93
2022-08-28T08:34:43.481Z,4.57
2022-08-28T08:37:11.692Z,7.20
2022-08-28T08:39:41.685Z,3.97
2022-08-28T08:42:27.515Z,3.95
2022-08-28T08:44:58.775Z,4.50
2022-08-28T08:47:51.690Z,3.40
2022-08-28T08:50:24.122Z,4.20
2022-08-28T08:53:09.228Z,6.68
2022-08-28T08:55:47.873Z,5.00
2022-08-28T08:58:37.864Z,6.90
2022-08-28T09:01:23.350Z,3.92
2022-08-28T09:04:40.146Z,3.67
2022-08-28T09:07:19.651Z,3.35
2022-08-28T09:09:56.076Z,4.78
2022-08-28T09:12:28.516Z,6.68
2022-08-28T09:15:26.382Z,5.72
2022-08-28T09:18:07.479Z,5.85
2022-08-28T09:20:34.568Z,4.53
2022-08-28T09:23:02.157Z,5.95
2022-08-28T09:25:53.139Z,6.15
2022-08-28T09:28:30.996Z,4.63
2022-08-28T09:31:08.841Z,4.50
2022-08-28T09:33:52.060Z,3.45
2022-08-28T09:36:34.157Z,3.85
2022-08-28T09:39:25.579Z,4.65
2022-08-28T09:42:34.511Z,3.85
2022-08-28T09:45:20.981Z,5.18
2022-08-28T09:48:03.474Z,4.82
2022-08-28T09:50:42.330Z,5.03
2022-08-28T09:53:09.547Z,4.28
2022-08-28T09:56:17.172Z,4.15
2022-08-28T09:58:55.873Z,4.78
2022-08-28T10:01:44.692Z,4.93
2022-08-28T10:04:15.981Z,2.53
2022-08-28T10:07:12.179Z,5.30
2022-08-28T10:10:30.225Z,4.50
2022-08-28T10:13:10.528Z,5.40
2022-08-28T10:16:09.846Z,5.05
2022-08-28T10:18:53.065Z,4.95
2022-08-28T10:21:42.834Z,2.95
2022-08-28T10:24:46.395Z,4.78
2022-08-28T10:27:34.463Z,4.95
2022-08-28T10:30:15.139Z,3.17
2022-08-28T10:33:06.562Z,4.10
2022-08-28T10:36:04.194Z,4.22
2022-08-28T10:38:50.776Z,4.55
2022-08-28T10:41:33.729Z,4.43
2022-08-28T10:44:05.127Z,3.35
2022-08-28T10:46:55.810Z,5.38
2022-08-28T10:49:37.403Z,3.70
2022-08-28T10:52:23.766Z,3.33
2022-08-28T10:55:07.521Z,3.22
2022-08-28T10:57:49.559Z,4.97
2022-08-28T11:00:22.145Z,3.25
2022-08-28T11:03:17.805Z,3.42
2022-08-28T11:08:37.128Z,2.58
2022-08-28T11:11:13.522Z,3.13
2022-08-28T11:14:06.882Z,3.60
2022-08-28T11:16:33.967Z,2.08
2022-08-28T11:19:38.735Z,3.90
2022-08-28T11:22:19.456Z,4.10
2022-08-28T11:25:18.456Z,4.65
2022-08-28T11:28:24.421Z,2.83
2022-08-28T11:31:00.806Z,2.60
2022-08-28T11:33:39.919Z,2.40
2022-08-28T11:36:32.768Z,2.33
2022-08-28T11:39:22.810Z,3.65
2022-08-28T11:42:29.287Z,2.95
2022-08-28T11:44:56.906Z,2.10
2022-08-28T11:47:46.633Z,2.88
2022-08-28T11:50:22.016Z,2.80
2022-08-28T11:54:08.863Z,4.07
2022-08-28T11:56:49.855Z,4.97
2022-08-28T11:59:43.971Z,2.22
2022-08-28T12:02:45.091Z,2.95
2022-08-28T12:05:15.941Z,3.70
2022-08-28T12:07:50.795Z,2.75
2022-08-28T12:10:20.892Z,2.85
2022-08-28T12:12:59.462Z,2.25
2022-08-28T12:15:29.780Z,3.00
2022-08-28T12:18:35.447Z,2.33
2022-08-28T12:21:07.286Z,2.90
2022-08-28T12:23:57.034Z,2.88
2022-08-28T12:26:39.767Z,4.78
2022-08-28T12:29:28.912Z,2.42
2022-08-28T12:32:19.767Z,2.05
2022-08-28T12:34:59.007Z,1.98
2022-08-28T12:37:55.050Z,3.72
2022-08-28T12:40:37.763Z,4.47
2022-08-28T12:43:10.201Z,2.78
2022-08-28T12:45:52.724Z,4.40
2022-08-28T12:48:26.268Z,4.47
2022-08-28T12:51:13.978Z,2.45
2022-08-28T12:53:55.264Z,2.60
2022-08-28T12:56:25.508Z,3.13
2022-08-28T12:58:52.991Z,3.90
2022-08-28T13:01:33.869Z,4.47
2022-08-28T13:04:32.753Z,2.67
2022-08-28T13:07:11.710Z,2.97
2022-08-28T13:09:48.628Z,2.38
2022-08-28T13:12:29.072Z,2.10
2022-08-28T13:15:12.935Z,2.45
2022-08-28T13:17:52.203Z,3.20
2022-08-28T13:20:36.391Z,3.17
2022-08-28T13:23:05.312Z,4.15
2022-08-28T13:25:37.599Z,2.28
2022-08-28T13:28:17.743Z,1.85
2022-08-28T13:30:58.364Z,4.45
2022-08-28T13:33:27.120Z,3.15
2022-08-28T13:35:54.913Z,3.28
2022-08-28T13:38:25.325Z,2.78
2022-08-28T13:41:00.126Z,2.80
2022-08-28T13:43:44.164Z,1.95
2022-08-28T13:46:11.397Z,2.45
2022-08-28T13:48:38.642Z,3.33
2022-08-28T13:51:14.231Z,5.70
2022-08-28T13:53:50.003Z,1.95
2022-08-28T13:56:17.640Z,4.70
2022-08-28T13:58:44.842Z,3.55
2022-08-28T14:01:45.006Z,5.53
2022-08-28T14:04:13.226Z,2.75
2022-08-28T14:06:44.280Z,3.60
2022-08-28T14:09:15.275Z,3.83
2022-08-28T14:11:46.700Z,2.08
2022-08-28T14:14:14.206Z,5.88
2022-08-28T14:16:42.160Z,4.43
2022-08-28T14:19:09.508Z,3.00
2022-08-28T14:21:39.935Z,2.78
2022-08-28T14:24:10.247Z,2.95
2022-08-28T14:26:38.338Z,1.75
2022-08-28T14:29:10.480Z,3.03
2022-08-28T14:31:40.865Z,3.15
2022-08-28T14:34:11.622Z,3.00
2022-08-28T14:36:41.119Z,3.47
2022-08-28T14:39:11.616Z,2.55
2022-08-28T14:41:46.145Z,4.13
2022-08-28T14:44:13.500Z,3.08
2022-08-28T14:46:44.263Z,4.93
2022-08-28T14:49:14.922Z,4.50
2022-08-28T14:51:44.970Z,1.88
2022-08-28T14:54:16.208Z,3.53
2022-08-28T14:56:45.302Z,2.85
2022-08-28T14:59:24.234Z,3.03
2022-08-28T15:01:55.237Z,3.72
2022-08-28T15:16:32.520Z,5.22
2022-08-28T15:19:01.541Z,3.80
2022-08-28T15:21:35.549Z,2.20
2022-08-28T15:24:05.004Z,4.45
2022-08-28T15:26:32.746Z,4.22
2022-08-28T15:29:03.524Z,4.43
2022-08-28T15:31:39.129Z,4.10
2022-08-28T15:34:15.468Z,3.40
2022-08-28T15:36:45.729Z,3.33
2022-08-28T15:39:45.913Z,3.63
2022-08-28T15:42:14.747Z,7.47
2022-08-28T15:44:42.336Z,3.63
2022-08-28T15:47:09.804Z,4.20
2022-08-28T15:49:46.918Z,3.70
2022-08-28T15:52:19.033Z,1.50
2022-08-28T15:54:47.589Z,3.40
2022-08-28T15:57:15.477Z,3.72
2022-08-28T15:59:49.332Z,3.58
2022-08-28T16:02:21.931Z,2.88
2022-08-28T16:04:49.580Z,2.80
2022-08-28T16:07:42.060Z,2.60
2022-08-28T16:10:13.345Z,4.53
2022-08-28T16:12:40.983Z,3.03
2022-08-28T16:15:09.345Z,2.15
2022-08-28T16:17:36.510Z,3.75
2022-08-28T16:20:06.604Z,3.67
2022-08-28T16:22:40.075Z,3.28
2022-08-28T16:25:09.479Z,4.03
2022-08-28T16:27:36.619Z,2.22
2022-08-28T16:30:06.373Z,4.13
2022-08-28T16:32:42.764Z,5.10
2022-08-28T16:35:15.697Z,3.15
2022-08-28T16:37:43.360Z,4.50
2022-08-28T16:40:14.472Z,3.20
2022-08-28T16:42:42.537Z,5.15
2022-08-28T16:45:18.848Z,3.10
2022-08-28T16:47:46.935Z,3.55
2022-08-28T16:50:14.776Z,3.72
2022-08-28T16:52:41.864Z,4.88
2022-08-28T16:55:13.684Z,2.13
2022-08-28T16:57:41.022Z,2.80
2022-08-28T17:00:14.288Z,2.92
2022-08-28T17:05:14.188Z,2.60
2022-08-28T17:07:41.540Z,4.68
2022-08-28T17:10:12.924Z,4.35
2022-08-28T17:12:41.280Z,5.30
2022-08-28T17:15:11.414Z,2.30
2022-08-28T17:17:39.663Z,3.20
2022-08-28T17:20:29.597Z,2.58
2022-08-28T17:22:57.257Z,4.38
2022-08-28T17:25:26.831Z,2.13
2022-08-28T17:27:55.526Z,2.97
2022-08-28T17:30:23.434Z,2.80
2022-08-28T17:32:51.345Z,2.33
2022-08-28T17:35:18.951Z,2.45
2022-08-28T17:37:46.573Z,2.47
2022-08-28T17:40:22.093Z,3.03
2022-08-28T17:42:49.285Z,3.03
2022-08-28T17:45:16.493Z,4.43
2022-08-28T17:47:43.525Z,4.75
2022-08-28T17:50:11.098Z,2.90
2022-08-28T17:52:39.776Z,3.58
2022-08-28T17:55:08.317Z,3.83
2022-08-28T17:57:35.739Z,4.00
2022-08-28T18:00:09.944Z,3.90
2022-08-28T18:02:43.264Z,3.78
2022-08-28T18:05:15.252Z,4.43
2022-08-28T18:07:42.511Z,3.50
2022-08-28T18:10:12.472Z,6.38
2022-08-28T18:12:43.208Z,4.13
2022-08-28T18:15:13.615Z,3.53
2022-08-28T18:17:43.128Z,3.33
2022-08-28T18:20:12.254Z,5.22
2022-08-28T18:22:39.508Z,5.20
2022-08-28T18:25:07.460Z,7.57
2022-08-28T18:27:35.092Z,5.05
2022-08-28T18:30:02.716Z,3.85
2022-08-28T18:32:29.771Z,3.92
2022-08-28T18:34:56.780Z,2.45
2022-08-28T18:37:23.857Z,2.78
2022-08-28T18:39:51.684Z,4.45
2022-08-28T18:42:21.411Z,2.70
2022-08-28T18:44:49.484Z,4.43
2022-08-28T18:47:16.580Z,3.53
2022-08-28T18:49:43.564Z,2.85
2022-08-28T18:52:10.659Z,11.63
2022-08-28T18:54:37.736Z,4.90
2022-08-28T18:57:10.704Z,3.03
2022-08-28T18:59:38.680Z,3.67
2022-08-28T19:02:07.124Z,7.25
2022-08-28T19:04:34.144Z,3.72
2022-08-28T19:07:04.996Z,4.20
2022-08-28T19:09:33.141Z,4.82
2022-08-28T19:12:03.463Z,2.45
2022-08-28T19:14:30.976Z,6.10
2022-08-28T19:16:58.079Z,3.53
2022-08-28T19:19:25.443Z,3.35
2022-08-28T19:21:54.928Z,2.38
2022-08-28T19:24:24.269Z,5.75
2022-08-28T19:26:51.434Z,4.15
2022-08-28T19:29:19.044Z,2.60
2022-08-28T19:31:46.040Z,2.47
2022-08-28T19:34:13.050Z,4.10
2022-08-28T19:36:41.755Z,3.03
2022-08-28T19:39:12.909Z,2.45
2022-08-28T19:41:41.030Z,1.70
2022-08-28T19:44:08.722Z,2.95
2022-08-28T19:46:39.256Z,5.15
2022-08-28T19:49:07.576Z,3.15
2022-08-28T19:51:37.088Z,17.38
2022-08-28T19:54:04.976Z,2.13
2022-08-28T19:56:34.259Z,2.50
2022-08-28T19:59:04.492Z,4.13
2022-08-28T20:01:37.109Z,2.40
2022-08-28T20:04:07.428Z,4.57
2022-08-28T20:06:36.584Z,2.20
2022-08-28T20:09:08.307Z,5.05
2022-08-28T20:11:40.496Z,4.05
2022-08-28T20:14:07.902Z,1.95
2022-08-28T20:16:39.719Z,4.32
2022-08-28T20:19:07.918Z,4.28
2022-08-28T20:21:43.976Z,3.30
2022-08-28T20:24:17.628Z,5.38
2022-08-28T20:26:46.534Z,3.70
2022-08-28T20:29:15.591Z,5.07
2022-08-28T20:31:47.768Z,4.95
2022-08-28T20:34:19.131Z,5.63
2022-08-28T20:36:47.353Z,5.60
2022-08-28T20:39:15.501Z,2.72
2022-08-28T20:41:44.358Z,5.40
2022-08-28T20:44:16.051Z,3.85
2022-08-28T20:46:43.779Z,3.47
2022-08-28T20:49:21.685Z,3.08
2022-08-28T20:51:58.701Z,2.45
2022-08-28T20:54:32.479Z,5.38
2022-08-28T20:57:07.603Z,3.60
2022-08-28T20:59:40.631Z,3.05
2022-08-28T21:02:13.418Z,3.20
2022-08-28T21:04:43.341Z,2.58
2022-08-28T21:07:12.154Z,3.70
2022-08-28T21:10:06.377Z,3.20
2022-08-28T21:12:27.019Z,3.42
2022-08-28T21:14:54.172Z,2.83
2022-08-28T21:17:29.867Z,2.13
2022-08-28T21:20:09.356Z,4.30
2022-08-28T21:22:38.664Z,3.47
2022-08-28T21:25:10.441Z,3.95
2022-08-28T21:27:38.393Z,4.47
2022-08-28T21:30:08.118Z,4.22
2022-08-28T21:32:36.220Z,2.88
2022-08-28T21:35:09.512Z,4.47
2022-08-28T21:37:41.430Z,3.60
2022-08-28T21:40:12.028Z,3.25
2022-08-28T21:42:39.309Z,8.32
2022-08-28T21:45:11.747Z,4.75
2022-08-28T21:47:41.281Z,5.78
2022-08-28T21:50:10.727Z,4.57
2022-08-28T21:52:37.928Z,4.38
2022-08-28T21:55:11.503Z,3.72
2022-08-28T21:57:38.893Z,2.15
2022-08-28T22:00:20.088Z,2.90
2022-08-28T22:02:47.829Z,5.80
2022-08-28T22:05:16.213Z,4.88
2022-08-28T22:07:44.993Z,4.10
2022-08-28T22:10:12.279Z,4.05
2022-08-28T22:12:39.638Z,3.97
2022-08-28T22:15:07.269Z,2.33
2022-08-28T22:17:34.404Z,3.50
2022-08-28T22:20:02.180Z,5.32
2022-08-28T22:22:47.793Z,4.30
2022-08-28T22:25:15.021Z,2.90
2022-08-28T22:27:42.196Z,3.72
2022-08-28T22:30:10.072Z,3.00
2022-08-28T22:32:37.076Z,3.83
2022-08-28T22:35:04.744Z,4.18
2022-08-28T22:37:32.211Z,5.00
2022-08-28T22:39:59.348Z,4.03
2022-08-28T22:42:26.681Z,3.65
2022-08-28T22:44:53.653Z,4.63
2022-08-28T22:47:20.744Z,3.58
2022-08-28T22:49:49.786Z,5.88
2022-08-28T22:52:17.237Z,4.85
2022-08-28T22:54:44.293Z,5.32
2022-08-28T22:57:12.621Z,4.05
2022-08-28T22:59:39.714Z,2.75
2022-08-28T23:02:07.356Z,2.72
2022-08-28T23:04:34.399Z,2.88
2022-08-28T23:07:01.449Z,4.38
2022-08-28T23:09:28.400Z,3.47
2022-08-28T23:11:55.369Z,7.15
2022-08-28T23:14:27.490Z,7.38
2022-08-28T23:16:55.868Z,4.82
2022-08-28T23:19:23.408Z,4.10
2022-08-28T23:21:50.574Z,3.97
2022-08-28T23:24:18.268Z,3.45
2022-08-28T23:26:48.482Z,2.67
2022-08-28T23:29:15.709Z,4.60
2022-08-28T23:31:42.887Z,5.82
2022-08-28T23:34:10.037Z,6.78
2022-08-28T23:36:39.346Z,2.97
2022-08-28T23:39:10.153Z,5.45
2022-08-28T23:41:37.170Z,4.30
2022-08-28T23:44:08.508Z,4.75
2022-08-28T23:46:41.152Z,4.88
2022-08-28T23:49:11.304Z,3.78
2022-08-28T23:51:42.000Z,5.57
2022-08-28T23:54:10.685Z,3.38
2022-08-28T23:56:38.401Z,5.65
2022-08-28T23:59:06.292Z,4.38
